createdAt,value
2024-01-15T00:00:10.961Z,497.00
2024-01-15T00:00:41.033Z,500.00
2024-01-15T00:01:11.176Z,495.00
2024-01-15T00:01:40.997Z,498.00
2024-01-15T00:02:10.995Z,494.00
2024-01-15T00:02:41.000Z,497.00
2024-01-15T00:03:11.054Z,495.00
2024-01-15T00:03:41.145Z,493.00
2024-01-15T00:04:11.325Z,494.00
2024-01-15T00:04:41.284Z,494.00
2024-01-15T00:05:11.325Z,494.00
2024-01-15T00:05:41.326Z,497.00
2024-01-15T00:06:11.490Z,498.00
2024-01-15T00:06:41.478Z,499.00
2024-01-15T00:07:11.467Z,499.00
2024-01-15T00:07:41.466Z,500.00
2024-01-15T00:08:11.475Z,499.00
2024-01-15T00:08:41.482Z,500.00
2024-01-15T00:09:11.540Z,499.00
2024-01-15T00:09:41.608Z,492.00
2024-01-15T00:10:11.673Z,496.00
2024-01-15T00:10:41.646Z,493.00
2024-01-15T00:11:41.717Z,494.00
2024-01-15T00:12:11.740Z,496.00
2024-01-15T00:12:41.795Z,495.00
2024-01-15T00:13:11.827Z,496.00
2024-01-15T00:13:41.828Z,496.00
2024-01-15T00:14:11.842Z,496.00
2024-01-15T00:14:41.840Z,495.00
2024-01-15T00:15:11.913Z,497.00
2024-01-15T00:15:41.940Z,494.00
2024-01-15T00:16:11.939Z,496.00
2024-01-15T00:16:41.957Z,503.00
2024-01-15T00:17:11.948Z,500.00
2024-01-15T00:17:41.978Z,499.00
2024-01-15T00:18:12.101Z,500.00
2024-01-15T00:18:42.205Z,495.00
2024-01-15T00:19:12.211Z,496.00
2024-01-15T00:19:42.199Z,498.00
2024-01-15T00:20:12.236Z,498.00
2024-01-15T00:20:42.238Z,495.00
2024-01-15T00:21:12.272Z,494.00
2024-01-15T00:21:42.303Z,492.00
2024-01-15T00:22:12.317Z,497.00
2024-01-15T00:22:42.390Z,499.00
2024-01-15T00:23:12.484Z,497.00
2024-01-15T00:23:42.566Z,497.00
2024-01-15T00:24:12.668Z,494.00
2024-01-15T00:24:42.664Z,496.00
2024-01-15T00:25:12.675Z,494.00
2024-01-15T00:25:42.672Z,495.00
2024-01-15T00:26:12.748Z,498.00
2024-01-15T00:26:42.808Z,501.00
2024-01-15T00:27:12.920Z,504.00
2024-01-15T00:27:42.986Z,507.00
2024-01-15T00:28:13.237Z,503.00
2024-01-15T00:28:43.087Z,504.00
2024-01-15T00:29:43.249Z,499.00
2024-01-15T00:30:13.536Z,504.00
2024-01-15T00:30:43.456Z,502.00
2024-01-15T00:31:13.534Z,502.00
2024-01-15T00:31:43.581Z,500.00
2024-01-15T00:32:13.621Z,501.00
2024-01-15T00:32:43.702Z,500.00
2024-01-15T00:33:13.966Z,500.00
2024-01-15T00:33:43.974Z,501.00
2024-01-15T00:34:14.044Z,502.00
2024-01-15T00:34:44.031Z,500.00
2024-01-15T00:35:13.982Z,499.00
2024-01-15T00:35:43.971Z,498.00
2024-01-15T00:36:44.171Z,503.00
2024-01-15T00:37:14.137Z,500.00
2024-01-15T00:37:44.149Z,507.00
2024-01-15T00:38:14.263Z,500.00
2024-01-15T00:38:44.256Z,498.00
2024-01-15T00:39:14.313Z,498.00
2024-01-15T00:39:44.346Z,494.00
2024-01-15T00:40:14.374Z,496.00
2024-01-15T00:40:44.399Z,494.00
2024-01-15T00:41:14.408Z,493.00
2024-01-15T00:42:14.558Z,492.00
2024-01-15T00:42:44.715Z,493.00
2024-01-15T00:43:14.658Z,491.00
2024-01-15T00:43:44.661Z,493.00
2024-01-15T00:44:44.762Z,486.00
2024-01-15T00:45:14.765Z,490.00
2024-01-15T00:45:44.790Z,490.00
2024-01-15T00:46:14.810Z,493.00
2024-01-15T00:46:44.807Z,492.00
2024-01-15T00:47:14.813Z,492.00
2024-01-15T00:47:44.889Z,492.00
2024-01-15T00:48:15.070Z,493.00
2024-01-15T00:48:45.089Z,493.00
2024-01-15T00:49:15.474Z,492.00
2024-01-15T00:49:45.130Z,491.00
2024-01-15T00:50:15.125Z,493.00
2024-01-15T00:50:45.135Z,490.00
2024-01-15T00:51:15.154Z,492.00
2024-01-15T00:51:45.240Z,492.00
2024-01-15T00:52:15.208Z,492.00
2024-01-15T00:52:45.218Z,492.00
2024-01-15T00:53:15.213Z,491.00
2024-01-15T00:54:15.332Z,491.00
2024-01-15T00:54:45.396Z,492.00
2024-01-15T00:55:15.398Z,493.00
2024-01-15T00:55:45.417Z,492.00
2024-01-15T00:56:15.434Z,495.00
2024-01-15T00:56:45.418Z,498.00
2024-01-15T00:57:45.604Z,492.00
2024-01-15T00:58:15.534Z,493.00
2024-01-15T00:58:45.520Z,493.00
2024-01-15T00:59:15.633Z,496.00
2024-01-15T00:59:45.633Z,495.00
2024-01-15T01:00:15.694Z,493.00
2024-01-15T01:00:45.877Z,494.00
2024-01-15T01:01:15.812Z,491.00
2024-01-15T01:01:45.800Z,490.00
2024-01-15T01:02:15.848Z,491.00
2024-01-15T01:02:45.857Z,490.00
2024-01-15T01:03:15.964Z,488.00
2024-01-15T01:03:46.013Z,488.00
2024-01-15T01:04:16.106Z,490.00
2024-01-15T01:04:46.018Z,489.00
2024-01-15T01:05:16.087Z,489.00
2024-01-15T01:05:46.141Z,491.00
2024-01-15T01:06:16.247Z,491.00
2024-01-15T01:06:46.306Z,491.00
2024-01-15T01:07:16.347Z,489.00
2024-01-15T01:07:46.335Z,488.00
2024-01-15T01:08:16.341Z,490.00
2024-01-15T01:08:46.339Z,486.00
2024-01-15T01:09:16.600Z,490.00
2024-01-15T01:09:46.639Z,491.00
2024-01-15T01:10:16.607Z,491.00
2024-01-15T01:10:46.599Z,488.00
2024-01-15T01:11:16.611Z,492.00
2024-01-15T01:11:46.737Z,488.00
2024-01-15T01:12:16.763Z,487.00
2024-01-15T01:12:46.885Z,486.00
2024-01-15T01:13:16.772Z,489.00
2024-01-15T01:13:46.777Z,491.00
2024-01-15T01:14:16.811Z,489.00
2024-01-15T01:14:46.794Z,492.00
2024-01-15T01:15:16.819Z,492.00
2024-01-15T01:15:47.041Z,492.00
2024-01-15T01:16:16.871Z,494.00
2024-01-15T01:16:46.892Z,490.00
2024-01-15T01:17:16.934Z,490.00
2024-01-15T01:17:47.112Z,489.00
2024-01-15T01:18:17.302Z,487.00
2024-01-15T01:18:47.325Z,489.00
2024-01-15T01:19:17.343Z,491.00
2024-01-15T01:19:47.338Z,492.00
2024-01-15T01:20:19.270Z,493.00
2024-01-15T01:20:47.334Z,492.00
2024-01-15T01:21:17.373Z,490.00
2024-01-15T01:21:47.397Z,490.00
2024-01-15T01:22:17.486Z,489.00
2024-01-15T01:22:47.602Z,487.00
2024-01-15T01:23:17.572Z,487.00
2024-01-15T01:23:47.663Z,490.00
2024-01-15T01:24:17.765Z,491.00
2024-01-15T01:24:47.869Z,490.00
2024-01-15T01:25:17.890Z,490.00
2024-01-15T01:25:47.925Z,490.00
2024-01-15T01:26:17.889Z,496.00
2024-01-15T01:26:47.926Z,493.00
2024-01-15T01:27:17.977Z,492.00
2024-01-15T01:27:47.945Z,493.00
2024-01-15T01:28:18.026Z,496.00
2024-01-15T01:28:48.076Z,491.00
2024-01-15T01:29:18.146Z,492.00
2024-01-15T01:29:48.222Z,494.00
2024-01-15T01:30:18.352Z,499.00
2024-01-15T01:30:48.435Z,496.00
2024-01-15T01:31:18.520Z,498.00
2024-01-15T01:31:48.623Z,499.00
2024-01-15T01:32:18.556Z,493.00
2024-01-15T01:32:48.599Z,489.00
2024-01-15T01:33:18.794Z,486.00
2024-01-15T01:33:48.710Z,489.00
2024-01-15T01:34:18.834Z,489.00
2024-01-15T01:34:48.784Z,490.00
2024-01-15T01:35:18.791Z,488.00
2024-01-15T01:35:48.805Z,488.00
2024-01-15T01:36:18.881Z,488.00
2024-01-15T01:37:18.915Z,488.00
2024-01-15T01:37:48.940Z,490.00
2024-01-15T01:38:18.914Z,491.00
2024-01-15T01:38:48.924Z,492.00
2024-01-15T01:39:18.991Z,492.00
2024-01-15T01:39:49.070Z,492.00
2024-01-15T01:40:19.067Z,491.00
2024-01-15T01:40:49.057Z,491.00
2024-01-15T01:41:19.069Z,490.00
2024-01-15T01:41:49.072Z,491.00
2024-01-15T01:42:19.098Z,491.00
2024-01-15T01:42:49.268Z,493.00
2024-01-15T01:43:19.176Z,497.00
2024-01-15T01:43:49.178Z,495.00
2024-01-15T01:44:19.193Z,492.00
2024-01-15T01:44:49.201Z,496.00
2024-01-15T01:45:19.245Z,495.00
2024-01-15T01:45:49.346Z,494.00
2024-01-15T01:46:19.281Z,498.00
2024-01-15T01:46:49.294Z,499.00
2024-01-15T01:47:19.317Z,498.00
2024-01-15T01:47:49.446Z,498.00
2024-01-15T01:48:19.538Z,499.00
2024-01-15T01:48:49.587Z,496.00
2024-01-15T01:49:19.637Z,494.00
2024-01-15T01:49:49.812Z,496.00
2024-01-15T01:50:19.752Z,495.00
2024-01-15T01:50:49.731Z,496.00
2024-01-15T01:51:19.779Z,498.00
2024-01-15T01:51:49.870Z,496.00
2024-01-15T01:52:19.822Z,492.00
2024-01-15T01:52:49.822Z,494.00
2024-01-15T01:53:49.887Z,491.00
2024-01-15T01:54:19.939Z,489.00
2024-01-15T01:54:50.011Z,491.00
2024-01-15T01:55:20.001Z,488.00
2024-01-15T01:55:50.000Z,488.00
2024-01-15T01:56:20.029Z,487.00
2024-01-15T01:56:50.035Z,481.00
2024-01-15T01:57:20.143Z,487.00
2024-01-15T01:57:50.147Z,489.00
2024-01-15T01:58:20.144Z,491.00
2024-01-15T01:58:50.118Z,492.00
2024-01-15T01:59:50.198Z,492.00
2024-01-15T02:00:20.335Z,495.00
2024-01-15T02:00:50.524Z,493.00
2024-01-15T02:01:20.762Z,494.00
2024-01-15T02:01:50.402Z,495.00
2024-01-15T02:02:50.477Z,495.00
2024-01-15T02:03:20.561Z,492.00
2024-01-15T02:03:50.639Z,493.00
2024-01-15T02:04:22.315Z,493.00
2024-01-15T02:04:50.780Z,495.00
2024-01-15T02:05:20.809Z,494.00
2024-01-15T02:05:50.936Z,490.00
2024-01-15T02:06:20.951Z,488.00
2024-01-15T02:06:50.992Z,489.00
2024-01-15T02:07:20.944Z,486.00
2024-01-15T02:07:50.972Z,490.00
2024-01-15T02:08:20.972Z,487.00
2024-01-15T02:08:50.975Z,487.00
2024-01-15T02:09:21.057Z,488.00
2024-01-15T02:09:51.163Z,487.00
2024-01-15T02:10:21.198Z,491.00
2024-01-15T02:10:51.202Z,488.00
2024-01-15T02:11:21.205Z,486.00
2024-01-15T02:11:51.215Z,488.00
2024-01-15T02:12:51.360Z,488.00
2024-01-15T02:13:21.283Z,489.00
2024-01-15T02:13:51.318Z,490.00
2024-01-15T02:14:21.319Z,490.00
2024-01-15T02:14:51.337Z,490.00
2024-01-15T02:15:21.381Z,497.00
2024-01-15T02:15:51.533Z,496.00
2024-01-15T02:16:21.376Z,490.00
2024-01-15T02:17:21.466Z,487.00
2024-01-15T02:17:51.507Z,486.00
2024-01-15T02:18:21.669Z,485.00
2024-01-15T02:18:51.690Z,487.00
2024-01-15T02:19:21.833Z,490.00
2024-01-15T02:19:51.852Z,492.00
2024-01-15T02:20:21.742Z,487.00
2024-01-15T02:20:51.745Z,490.00
2024-01-15T02:21:21.801Z,490.00
2024-01-15T02:21:51.845Z,490.00
2024-01-15T02:22:21.843Z,490.00
2024-01-15T02:22:51.913Z,489.00
2024-01-15T02:23:21.991Z,489.00
2024-01-15T02:23:52.092Z,487.00
2024-01-15T02:24:22.207Z,494.00
2024-01-15T02:24:52.309Z,485.00
2024-01-15T02:25:22.277Z,480.00
2024-01-15T02:25:52.355Z,481.00
2024-01-15T02:26:22.446Z,481.00
2024-01-15T02:26:52.521Z,483.00
2024-01-15T02:27:22.647Z,488.00
2024-01-15T02:27:52.629Z,486.00
2024-01-15T02:28:22.710Z,479.00
2024-01-15T02:28:52.799Z,480.00
2024-01-15T02:29:22.927Z,483.00
2024-01-15T02:29:52.974Z,491.00
2024-01-15T02:30:23.118Z,494.00
2024-01-15T02:30:53.296Z,493.00
2024-01-15T02:31:23.423Z,492.00
2024-01-15T02:31:53.517Z,486.00
2024-01-15T02:32:23.407Z,487.00
2024-01-15T02:32:53.380Z,488.00
2024-01-15T02:33:23.747Z,486.00
2024-01-15T02:33:53.585Z,482.00
2024-01-15T02:34:23.663Z,481.00
2024-01-15T02:34:53.743Z,481.00
2024-01-15T02:35:23.706Z,490.00
2024-01-15T02:35:53.711Z,491.00
2024-01-15T02:36:23.761Z,489.00
2024-01-15T02:36:53.797Z,488.00
2024-01-15T02:37:23.795Z,489.00
2024-01-15T02:37:53.829Z,495.00
2024-01-15T02:38:23.848Z,489.00
2024-01-15T02:38:53.858Z,486.00
2024-01-15T02:39:23.890Z,485.00
2024-01-15T02:39:53.966Z,486.00
2024-01-15T02:40:23.989Z,485.00
2024-01-15T02:40:53.989Z,491.00
2024-01-15T02:41:23.983Z,482.00
2024-01-15T02:41:53.984Z,484.00
2024-01-15T02:42:23.993Z,486.00
2024-01-15T02:42:53.996Z,487.00
2024-01-15T02:43:23.996Z,487.00
2024-01-15T02:43:54.018Z,489.00
2024-01-15T02:44:24.007Z,489.00
2024-01-15T02:44:54.155Z,487.00
2024-01-15T02:45:24.156Z,488.00
2024-01-15T02:45:54.289Z,489.00
2024-01-15T02:46:24.177Z,490.00
2024-01-15T02:46:54.190Z,490.00
2024-01-15T02:47:24.196Z,490.00
2024-01-15T02:47:54.231Z,491.00
2024-01-15T02:48:24.342Z,491.00
2024-01-15T02:48:54.385Z,488.00
2024-01-15T02:49:24.403Z,489.00
2024-01-15T02:49:54.418Z,488.00
2024-01-15T02:50:24.408Z,488.00
2024-01-15T02:50:54.409Z,489.00
2024-01-15T02:51:54.516Z,487.00
2024-01-15T02:52:24.504Z,484.00
2024-01-15T02:52:54.514Z,487.00
2024-01-15T02:53:24.512Z,487.00
2024-01-15T02:54:24.637Z,484.00
2024-01-15T02:54:54.723Z,484.00
2024-01-15T02:55:24.809Z,484.00
2024-01-15T02:55:54.801Z,484.00
2024-01-15T02:56:24.877Z,485.00
2024-01-15T02:56:54.868Z,484.00
2024-01-15T02:57:24.978Z,484.00
2024-01-15T02:57:54.980Z,484.00
2024-01-15T02:58:24.997Z,484.00
2024-01-15T02:58:54.999Z,486.00
2024-01-15T02:59:25.007Z,485.00
2024-01-15T02:59:55.018Z,486.00
2024-01-15T03:00:25.064Z,482.00
2024-01-15T03:00:55.160Z,483.00
2024-01-15T03:01:25.206Z,482.00
2024-01-15T03:01:55.216Z,480.00
2024-01-15T03:02:25.235Z,484.00
2024-01-15T03:02:55.324Z,482.00
2024-01-15T03:03:25.443Z,485.00
2024-01-15T03:03:55.457Z,484.00
2024-01-15T03:04:25.589Z,485.00
2024-01-15T03:04:55.510Z,485.00
2024-01-15T03:05:25.538Z,474.00
2024-01-15T03:05:55.784Z,489.00
2024-01-15T03:06:25.723Z,482.00
2024-01-15T03:06:55.743Z,483.00
2024-01-15T03:07:25.748Z,484.00
2024-01-15T03:07:55.860Z,481.00
2024-01-15T03:08:25.856Z,481.00
2024-01-15T03:08:55.871Z,483.00
2024-01-15T03:09:25.897Z,480.00
2024-01-15T03:09:55.976Z,480.00
2024-01-15T03:10:25.997Z,482.00
2024-01-15T03:10:56.026Z,483.00
2024-01-15T03:11:26.011Z,486.00
2024-01-15T03:11:56.007Z,486.00
2024-01-15T03:12:26.065Z,486.00
2024-01-15T03:12:56.108Z,488.00
2024-01-15T03:13:26.112Z,491.00
2024-01-15T03:13:56.121Z,494.00
2024-01-15T03:14:26.127Z,493.00
2024-01-15T03:14:56.139Z,495.00
2024-01-15T03:15:26.227Z,497.00
2024-01-15T03:15:56.335Z,495.00
2024-01-15T03:16:26.228Z,492.00
2024-01-15T03:16:56.247Z,492.00
2024-01-15T03:17:26.280Z,492.00
2024-01-15T03:17:56.324Z,490.00
2024-01-15T03:18:26.509Z,491.00
2024-01-15T03:18:56.406Z,491.00
2024-01-15T03:19:26.481Z,493.00
2024-01-15T03:19:56.629Z,492.00
2024-01-15T03:20:26.470Z,490.00
2024-01-15T03:20:56.460Z,493.00
2024-01-15T03:21:56.603Z,491.00
2024-01-15T03:22:26.578Z,488.00
2024-01-15T03:22:56.687Z,488.00
2024-01-15T03:23:26.741Z,490.00
2024-01-15T03:23:56.842Z,488.00
2024-01-15T03:24:26.953Z,487.00
2024-01-15T03:24:57.058Z,487.00
2024-01-15T03:25:27.014Z,489.00
2024-01-15T03:25:57.127Z,489.00
2024-01-15T03:26:27.110Z,487.00
2024-01-15T03:26:57.185Z,488.00
2024-01-15T03:27:27.394Z,486.00
2024-01-15T03:27:57.338Z,485.00
2024-01-15T03:28:27.293Z,485.00
2024-01-15T03:28:57.367Z,486.00
2024-01-15T03:29:27.460Z,487.00
2024-01-15T03:29:57.527Z,489.00
2024-01-15T03:30:27.684Z,487.00
2024-01-15T03:30:57.731Z,489.00
2024-01-15T03:31:27.841Z,491.00
2024-01-15T03:31:57.779Z,489.00
2024-01-15T03:32:27.756Z,494.00
2024-01-15T03:32:57.850Z,487.00
2024-01-15T03:33:27.985Z,484.00
2024-01-15T03:33:57.990Z,481.00
2024-01-15T03:34:28.032Z,480.00
2024-01-15T03:34:58.090Z,481.00
2024-01-15T03:35:28.023Z,481.00
2024-01-15T03:35:58.051Z,480.00
2024-01-15T03:36:28.152Z,480.00
2024-01-15T03:36:58.140Z,480.00
2024-01-15T03:37:28.157Z,480.00
2024-01-15T03:37:58.168Z,481.00
2024-01-15T03:38:28.163Z,484.00
2024-01-15T03:38:58.286Z,486.00
2024-01-15T03:39:28.330Z,483.00
2024-01-15T03:39:58.535Z,481.00
2024-01-15T03:40:28.636Z,483.00
2024-01-15T03:40:58.492Z,481.00
2024-01-15T03:41:28.500Z,482.00
2024-01-15T03:41:58.505Z,485.00
2024-01-15T03:42:58.598Z,483.00
2024-01-15T03:43:28.597Z,486.00
2024-01-15T03:43:58.712Z,485.00
2024-01-15T03:44:28.720Z,486.00
2024-01-15T03:44:58.724Z,487.00
2024-01-15T03:45:28.860Z,484.00
2024-01-15T03:45:58.810Z,483.00
2024-01-15T03:46:58.832Z,486.00
2024-01-15T03:47:28.900Z,487.00
2024-01-15T03:48:29.002Z,485.00
2024-01-15T03:48:59.051Z,482.00
2024-01-15T03:49:29.244Z,485.00
2024-01-15T03:49:59.118Z,483.00
2024-01-15T03:50:29.129Z,485.00
2024-01-15T03:50:59.213Z,484.00
2024-01-15T03:51:29.193Z,483.00
2024-01-15T03:52:29.321Z,482.00
2024-01-15T03:52:59.322Z,491.00
2024-01-15T03:53:29.322Z,486.00
2024-01-15T03:54:29.460Z,480.00
2024-01-15T03:54:59.492Z,480.00
2024-01-15T03:55:29.515Z,480.00
2024-01-15T03:55:59.532Z,481.00
2024-01-15T03:56:29.509Z,477.00
2024-01-15T03:57:29.615Z,480.00
2024-01-15T03:57:59.630Z,482.00
2024-01-15T03:58:29.639Z,482.00
2024-01-15T03:58:59.647Z,480.00
2024-01-15T03:59:29.669Z,485.00
2024-01-15T03:59:59.659Z,486.00
2024-01-15T04:00:59.890Z,490.00
2024-01-15T04:01:29.824Z,487.00
2024-01-15T04:01:59.845Z,484.00
2024-01-15T04:02:29.883Z,484.00
2024-01-15T04:02:59.863Z,484.00
2024-01-15T04:03:29.977Z,483.00
2024-01-15T04:03:59.992Z,486.00
2024-01-15T04:04:30.070Z,486.00
2024-01-15T04:05:00.064Z,486.00
2024-01-15T04:05:30.070Z,486.00
2024-01-15T04:06:00.110Z,484.00
2024-01-15T04:06:30.386Z,486.00
2024-01-15T04:07:00.217Z,487.00
2024-01-15T04:07:30.272Z,485.00
2024-01-15T04:08:00.277Z,480.00
2024-01-15T04:08:30.296Z,479.00
2024-01-15T04:09:00.310Z,482.00
2024-01-15T04:10:00.437Z,479.00
2024-01-15T04:10:30.389Z,479.00
2024-01-15T04:11:00.375Z,481.00
2024-01-15T04:12:00.473Z,485.00
2024-01-15T04:12:30.509Z,483.00
2024-01-15T04:13:00.539Z,482.00
2024-01-15T04:13:30.585Z,479.00
2024-01-15T04:14:00.571Z,478.00
2024-01-15T04:14:30.575Z,479.00
2024-01-15T04:15:00.692Z,477.00
2024-01-15T04:15:30.729Z,484.00
2024-01-15T04:16:00.791Z,481.00
2024-01-15T04:16:30.802Z,487.00
2024-01-15T04:17:00.798Z,482.00
2024-01-15T04:17:30.843Z,479.00
2024-01-15T04:18:00.938Z,477.00
2024-01-15T04:18:30.961Z,479.00
2024-01-15T04:19:01.089Z,486.00
2024-01-15T04:19:31.034Z,482.00
2024-01-15T04:20:01.090Z,476.00
2024-01-15T04:20:31.096Z,480.00
2024-01-15T04:21:01.100Z,485.00
2024-01-15T04:21:31.214Z,486.00
2024-01-15T04:22:01.175Z,481.00
2024-01-15T04:22:31.253Z,481.00
2024-01-15T04:23:01.340Z,484.00
2024-01-15T04:23:31.429Z,478.00
2024-01-15T04:24:01.506Z,474.00
2024-01-15T04:24:31.644Z,474.00
2024-01-15T04:25:01.686Z,479.00
2024-01-15T04:25:31.667Z,483.00
2024-01-15T04:26:01.752Z,486.00
2024-01-15T04:26:31.820Z,484.00
2024-01-15T04:27:01.943Z,483.00
2024-01-15T04:27:32.142Z,472.00
2024-01-15T04:28:01.977Z,482.00
2024-01-15T04:29:02.127Z,480.00
2024-01-15T04:29:32.190Z,481.00
2024-01-15T04:30:02.257Z,481.00
2024-01-15T04:30:32.389Z,480.00
2024-01-15T04:31:02.587Z,479.00
2024-01-15T04:31:32.568Z,478.00
2024-01-15T04:32:02.518Z,474.00
2024-01-15T04:32:32.542Z,474.00
2024-01-15T04:33:02.660Z,478.00
2024-01-15T04:33:32.788Z,477.00
2024-01-15T04:34:02.791Z,478.00
2024-01-15T04:34:32.846Z,476.00
2024-01-15T04:35:02.766Z,481.00
2024-01-15T04:35:32.767Z,480.00
2024-01-15T04:36:02.778Z,478.00
2024-01-15T04:36:32.831Z,475.00
2024-01-15T04:37:02.835Z,476.00
2024-01-15T04:37:32.817Z,474.00
2024-01-15T04:38:02.823Z,480.00
2024-01-15T04:38:32.821Z,476.00
2024-01-15T04:39:32.916Z,475.00
2024-01-15T04:40:02.935Z,480.00
2024-01-15T04:40:32.944Z,476.00
2024-01-15T04:41:02.953Z,478.00
2024-01-15T04:41:32.954Z,470.00
2024-01-15T04:42:02.944Z,481.00
2024-01-15T04:42:33.087Z,473.00
2024-01-15T04:43:03.109Z,473.00
2024-01-15T04:43:33.112Z,480.00
2024-01-15T04:44:03.241Z,473.00
2024-01-15T04:44:33.224Z,477.00
2024-01-15T04:45:33.380Z,483.00
2024-01-15T04:46:03.378Z,481.00
2024-01-15T04:46:33.391Z,480.00
2024-01-15T04:47:03.381Z,480.00
2024-01-15T04:48:03.484Z,481.00
2024-01-15T04:48:33.578Z,475.00
2024-01-15T04:49:03.672Z,480.00
2024-01-15T04:49:33.664Z,476.00
2024-01-15T04:50:03.672Z,478.00
2024-01-15T04:50:33.692Z,477.00
2024-01-15T04:51:03.702Z,479.00
2024-01-15T04:51:33.720Z,477.00
2024-01-15T04:52:03.710Z,475.00
2024-01-15T04:52:33.825Z,468.00
2024-01-15T04:53:03.810Z,464.00
2024-01-15T04:53:33.818Z,472.00
2024-01-15T04:54:03.827Z,478.00
2024-01-15T04:54:33.927Z,473.00
2024-01-15T04:55:03.966Z,474.00
2024-01-15T04:55:33.992Z,475.00
2024-01-15T04:56:34.072Z,474.00
2024-01-15T04:57:04.104Z,474.00
2024-01-15T04:57:34.172Z,475.00
2024-01-15T04:58:04.186Z,476.00
2024-01-15T04:58:34.191Z,477.00
2024-01-15T04:59:04.221Z,475.00
2024-01-15T04:59:34.250Z,475.00
2024-01-15T05:00:04.274Z,476.00
2024-01-15T05:00:34.351Z,475.00
2024-01-15T05:01:04.458Z,475.00
2024-01-15T05:01:34.564Z,476.00
2024-01-15T05:02:04.465Z,477.00
2024-01-15T05:03:04.592Z,467.00
2024-01-15T05:03:34.744Z,467.00
2024-01-15T05:04:04.872Z,473.00
2024-01-15T05:04:34.910Z,477.00
2024-01-15T05:05:04.860Z,476.00
2024-01-15T05:05:34.925Z,490.00
2024-01-15T05:06:05.002Z,480.00
2024-01-15T05:06:35.033Z,478.00
2024-01-15T05:07:05.053Z,477.00
2024-01-15T05:07:35.037Z,477.00
2024-01-15T05:08:05.062Z,483.00
2024-01-15T05:08:35.189Z,487.00
2024-01-15T05:09:05.197Z,488.00
2024-01-15T05:09:35.233Z,478.00
2024-01-15T05:10:05.350Z,498.00
2024-01-15T05:10:35.269Z,479.00
2024-01-15T05:11:05.249Z,484.00
2024-01-15T05:11:35.274Z,490.00
2024-01-15T05:12:05.259Z,490.00
2024-01-15T05:12:35.416Z,488.00
2024-01-15T05:13:05.404Z,487.00
2024-01-15T05:13:35.412Z,484.00
2024-01-15T05:14:05.417Z,486.00
2024-01-15T05:14:35.414Z,487.00
2024-01-15T05:15:05.410Z,521.00
2024-01-15T05:16:05.528Z,506.00
2024-01-15T05:16:35.538Z,507.00
2024-01-15T05:17:07.389Z,506.00
2024-01-15T05:17:35.595Z,493.00
2024-01-15T05:18:05.617Z,505.00
2024-01-15T05:18:35.831Z,519.00
2024-01-15T05:19:05.785Z,515.00
2024-01-15T05:19:35.749Z,510.00
2024-01-15T05:20:05.900Z,499.00
2024-01-15T05:20:35.944Z,504.00
2024-01-15T05:21:35.821Z,518.00
2024-01-15T05:22:05.804Z,515.00
2024-01-15T05:22:35.878Z,517.00
2024-01-15T05:23:05.965Z,513.00
2024-01-15T05:23:36.025Z,514.00
2024-01-15T05:24:06.113Z,526.00
2024-01-15T05:24:36.208Z,520.00
2024-01-15T05:25:06.285Z,516.00
2024-01-15T05:25:36.376Z,519.00
2024-01-15T05:26:06.437Z,518.00
2024-01-15T05:26:36.529Z,529.00
2024-01-15T05:27:06.703Z,534.00
2024-01-15T05:27:36.773Z,541.00
2024-01-15T05:28:06.762Z,529.00
2024-01-15T05:28:36.847Z,529.00
2024-01-15T05:29:06.927Z,543.00
2024-01-15T05:29:37.022Z,541.00
2024-01-15T05:30:07.193Z,538.00
2024-01-15T05:30:37.192Z,538.00
2024-01-15T05:31:07.221Z,537.00
2024-01-15T05:31:37.590Z,547.00
2024-01-15T05:32:07.417Z,540.00
2024-01-15T05:32:37.404Z,545.00
2024-01-15T05:33:07.494Z,543.00
2024-01-15T05:33:37.603Z,541.00
2024-01-15T05:34:07.591Z,541.00
2024-01-15T05:34:37.617Z,545.00
2024-01-15T05:35:07.689Z,547.00
2024-01-15T05:35:37.689Z,546.00
2024-01-15T05:36:07.750Z,545.00
2024-01-15T05:36:37.927Z,545.00
2024-01-15T05:37:07.768Z,540.00
2024-01-15T05:37:37.826Z,541.00
2024-01-15T05:38:07.803Z,551.00
2024-01-15T05:38:37.811Z,549.00
2024-01-15T05:39:07.846Z,545.00
2024-01-15T05:39:37.881Z,548.00
2024-01-15T05:40:07.928Z,549.00
2024-01-15T05:40:37.927Z,550.00
2024-01-15T05:41:07.937Z,550.00
2024-01-15T05:41:37.982Z,552.00
2024-01-15T05:42:08.009Z,555.00
2024-01-15T05:42:38.067Z,557.00
2024-01-15T05:43:08.088Z,561.00
2024-01-15T05:43:38.111Z,561.00
2024-01-15T05:44:08.104Z,561.00
2024-01-15T05:44:38.148Z,563.00
2024-01-15T05:45:08.216Z,562.00
2024-01-15T05:45:38.252Z,561.00
2024-01-15T05:46:08.246Z,559.00
2024-01-15T05:46:38.264Z,556.00
2024-01-15T05:47:08.267Z,561.00
2024-01-15T05:47:38.466Z,564.00
2024-01-15T05:48:08.387Z,560.00
2024-01-15T05:48:38.436Z,561.00
2024-01-15T05:49:08.451Z,565.00
2024-01-15T05:49:38.497Z,582.00
2024-01-15T05:50:08.468Z,564.00
2024-01-15T05:50:38.518Z,587.00
2024-01-15T05:51:08.566Z,582.00
2024-01-15T05:51:38.545Z,581.00
2024-01-15T05:52:08.536Z,603.00
2024-01-15T05:52:38.547Z,604.00
2024-01-15T05:53:08.546Z,608.00
2024-01-15T05:53:38.549Z,623.00
2024-01-15T05:54:08.590Z,613.00
2024-01-15T05:54:38.619Z,609.00
2024-01-15T05:55:08.657Z,609.00
2024-01-15T05:55:38.672Z,606.00
2024-01-15T05:56:38.654Z,611.00
2024-01-15T05:57:08.671Z,607.00
2024-01-15T05:57:38.730Z,602.00
2024-01-15T05:58:08.742Z,600.00
2024-01-15T05:58:38.771Z,600.00
2024-01-15T05:59:10.099Z,601.00
2024-01-15T05:59:38.908Z,597.00
2024-01-15T06:00:09.015Z,600.00
2024-01-15T06:00:39.133Z,602.00
2024-01-15T06:01:09.224Z,607.00
2024-01-15T06:01:39.317Z,612.00
2024-01-15T06:02:09.348Z,616.00
2024-01-15T06:02:39.350Z,617.00
2024-01-15T06:03:09.415Z,621.00
2024-01-15T06:03:39.523Z,629.00
2024-01-15T06:04:09.558Z,628.00
2024-01-15T06:04:39.542Z,632.00
2024-01-15T06:05:09.554Z,632.00
2024-01-15T06:05:39.627Z,639.00
2024-01-15T06:06:09.700Z,645.00
2024-01-15T06:06:39.689Z,645.00
2024-01-15T06:07:09.764Z,646.00
2024-01-15T06:07:39.789Z,648.00
2024-01-15T06:08:09.803Z,649.00
2024-01-15T06:08:39.799Z,650.00
2024-01-15T06:09:39.897Z,654.00
2024-01-15T06:10:09.898Z,655.00
2024-01-15T06:10:39.894Z,657.00
2024-01-15T06:11:09.898Z,663.00
2024-01-15T06:11:39.909Z,666.00
2024-01-15T06:12:09.933Z,667.00
2024-01-15T06:12:40.063Z,668.00
2024-01-15T06:13:09.958Z,670.00
2024-01-15T06:14:10.044Z,672.00
2024-01-15T06:14:40.049Z,670.00
2024-01-15T06:15:10.077Z,671.00
2024-01-15T06:15:40.111Z,672.00
2024-01-15T06:16:10.692Z,680.00
2024-01-15T06:16:40.206Z,682.00
2024-01-15T06:17:10.216Z,677.00
2024-01-15T06:17:40.305Z,675.00
2024-01-15T06:18:40.439Z,682.00
2024-01-15T06:19:10.558Z,683.00
2024-01-15T06:19:40.478Z,687.00
2024-01-15T06:20:10.474Z,699.00
2024-01-15T06:20:40.497Z,702.00
2024-01-15T06:21:10.554Z,707.00
2024-01-15T06:21:40.663Z,708.00
2024-01-15T06:22:10.632Z,713.00
2024-01-15T06:22:40.708Z,716.00
2024-01-15T06:23:10.791Z,717.00
2024-01-15T06:23:40.888Z,721.00
2024-01-15T06:24:11.061Z,721.00
2024-01-15T06:24:41.062Z,724.00
2024-01-15T06:25:11.043Z,724.00
2024-01-15T06:25:41.132Z,723.00
2024-01-15T06:26:11.204Z,724.00
2024-01-15T06:26:41.284Z,725.00
2024-01-15T06:27:11.378Z,725.00
2024-01-15T06:27:41.424Z,725.00
2024-01-15T06:28:11.415Z,724.00
2024-01-15T06:28:41.506Z,722.00
2024-01-15T06:29:11.613Z,725.00
2024-01-15T06:29:41.685Z,728.00
2024-01-15T06:30:11.999Z,733.00
2024-01-15T06:30:41.861Z,733.00
2024-01-15T06:31:12.052Z,737.00
2024-01-15T06:31:42.237Z,735.00
2024-01-15T06:32:11.982Z,732.00
2024-01-15T06:32:42.105Z,736.00
2024-01-15T06:33:12.175Z,740.00